Aeroporto :
LOGIN :

Iscrizione | Disclaimer

   EN    FR    IT 

 










Sommario :    VFR   VFR Marginale   IFR   IFR Intensivo   IFR Molto Intensivo
Visibilità : 
Base nubi : 
>= 8 km
>= 3000ft
5 / 8 km
1000 / 3000 ft
1500m / 5 km
500 / 1000 ft
800 / 1500m
200 / 500 ft
< 800m
< 200 ft
Simboli :   Temporali  Nebbia  Neve Forte  Precipitazioni Forti  Vento > 20 kt
SIGMETs :   Varie  Temporali  Ghiacco  Turbolenza  Onda orograficha  Ceneri Vulcaniche






- Altitudine del aeroporto : 242 ft
- Codice IATA : DUB


EIDW - Dublin

ULTIMO METAR :
  • 191300Z 28011KT 240V300 9999 FEW024 SCT026 BKN034 17/10 Q1016 NOSIG

METARs OBSOLETI :
  • 191230Z 27010KT 230V300 9999 FEW024 SCT026 BKN033 16/10 Q1016 NOSIG
  • 191200Z 28012KT 240V320 9999 FEW024 BKN030 17/09 Q1015 NOSIG
  • 191130Z 27013KT 9999 FEW024 SCT027 BKN031 17/10 Q1015 NOSIG
  • 191100Z 29010KT 250V320 9999 FEW023 SCT027 BKN030 16/10 Q1015 NOSIG

TAF TAF EIDW
Valido dal 19 a 12 ore il 20 a 12 ore UTC


191100Z 1912/2012 28011KT 9999 SCT020 SCT040
BECMG 1916/1918 25008KT
PROB30
TEMPO 2005/2008 4000 BR



MetMap, La meteo Aeronautica in un colpo d'occhio ! - Copyright ORBIFLY Dicembre 2007 - Disclaimer

ORBIFLY MET'MAP TEAM :

Programmazione e sviluppo : Alexandra Zaïnal
Concezione : Baudouin d'Aumeries
Aiuto per la programmazione : Marc-Olivier Méhu
Supporto tecnico e logistico : Manuel Goepfert
Aiuto per la traduzione : Arnaldo La Scala

Contatto : metmap@orbifly.com




FONTI E CREDITI :

   NOAA